Time;durP1;ratioP1;P1;durP2;ratioP2;P2;SDS_P1;SDS_P2;PMS_P1;PMS_P2;Temp;Humidity;BMP_temperature;BMP_pressure;BME280_temperature;BME280_humidity;BME280_pressure;Samples;Min_cycle;Max_cycle;Signal;HPM_P1;HPM_P2
2021/05/07 00:01:42;;;;;;;3.17;1.77;;;8.20;99.90;;;;;;5014304;28;20029;-63
2021/05/07 00:04:09;;;;;;;2.35;1.67;;;8.20;99.90;;;;;;5014326;28;20022;-63
2021/05/07 00:06:35;;;;;;;3.33;2.00;;;8.20;99.90;;;;;;4996446;28;20030;-62
2021/05/07 00:09:05;;;;;;;3.08;1.80;;;8.20;99.90;;;;;;5012992;28;20026;-63
2021/05/07 00:11:33;;;;;;;2.58;1.63;;;8.20;99.90;;;;;;5014059;28;20034;-63
2021/05/07 00:13:59;;;;;;;2.75;1.70;;;8.20;99.90;;;;;;5013992;28;20063;-64
2021/05/07 00:16:26;;;;;;;3.28;1.92;;;8.20;99.90;;;;;;5014035;28;20538;-63
2021/05/07 00:18:53;;;;;;;3.00;1.77;;;8.10;99.90;;;;;;5013630;28;20125;-63
2021/05/07 00:21:19;;;;;;;3.28;1.98;;;8.10;99.90;;;;;;4996510;28;20042;-63
2021/05/07 00:23:45;;;;;;;2.88;2.08;;;8.10;99.90;;;;;;5013580;28;20404;-63
2021/05/07 00:26:11;;;;;;;3.08;2.00;;;8.00;99.90;;;;;;5013706;28;20127;-63
2021/05/07 00:28:37;;;;;;;3.03;2.05;;;8.10;99.90;;;;;;5013900;28;20038;-62
2021/05/07 00:31:04;;;;;;;4.75;2.53;;;8.00;99.90;;;;;;5013287;28;20025;-62
2021/05/07 00:33:30;;;;;;;3.90;2.35;;;8.10;99.90;;;;;;5013618;28;20057;-63
2021/05/07 00:35:56;;;;;;;4.85;2.10;;;8.10;99.90;;;;;;4996057;28;20088;-63
2021/05/07 00:38:21;;;;;;;4.45;2.55;;;8.10;99.90;;;;;;5013441;28;20022;-63
2021/05/07 00:40:47;;;;;;;5.05;2.42;;;8.00;99.90;;;;;;5013376;28;20049;-63
2021/05/07 00:43:13;;;;;;;4.22;1.98;;;8.00;99.90;;;;;;5012268;28;20041;-63
2021/05/07 00:45:39;;;;;;;5.45;2.60;;;8.00;99.90;;;;;;5013563;28;20116;-63
2021/05/07 00:48:19;;;;;;;3.13;2.25;;;8.00;99.90;;;;;;5013400;28;20029;-63
2021/05/07 00:50:47;;;;;;;4.65;2.80;;;7.90;99.90;;;;;;5013255;28;20030;-64
2021/05/07 00:53:16;;;;;;;4.45;2.50;;;7.90;99.90;;;;;;5012934;28;20566;-63
2021/05/07 00:55:42;;;;;;;4.32;2.60;;;7.80;99.90;;;;;;5012987;28;20056;-64
2021/05/07 00:58:08;;;;;;;4.82;2.88;;;7.80;99.90;;;;;;4995810;28;20426;-63
2021/05/07 01:00:34;;;;;;;4.88;2.85;;;7.70;99.90;;;;;;4995838;28;20026;-63
2021/05/07 01:03:02;;;;;;;4.00;2.85;;;7.80;99.90;;;;;;5013136;28;20084;-63
2021/05/07 01:05:28;;;;;;;4.80;2.58;;;7.70;99.90;;;;;;4995832;28;20065;-63
2021/05/07 01:07:54;;;;;;;6.15;3.05;;;7.70;99.90;;;;;;5013156;28;20394;-63
2021/05/07 01:10:22;;;;;;;8.18;3.00;;;7.70;99.90;;;;;;4995665;28;20026;-63
2021/05/07 01:12:48;;;;;;;5.60;3.28;;;7.70;99.90;;;;;;4995826;28;20133;-63
2021/05/07 01:15:17;;;;;;;4.43;2.78;;;7.70;99.90;;;;;;5012597;28;20390;-63
2021/05/07 01:17:47;;;;;;;5.53;3.20;;;7.70;99.90;;;;;;5012801;28;20041;-63
2021/05/07 01:20:20;;;;;;;4.80;2.85;;;7.80;99.90;;;;;;5012457;28;20383;-64
2021/05/07 01:22:51;;;;;;;4.65;2.67;;;7.70;99.90;;;;;;5012496;28;20140;-63
2021/05/07 01:25:20;;;;;;;5.40;2.90;;;7.70;99.90;;;;;;5012775;28;20130;-63
2021/05/07 01:27:48;;;;;;;4.03;2.47;;;7.80;99.90;;;;;;4995384;28;20029;-63
2021/05/07 01:30:28;;;;;;;5.50;3.28;;;7.80;99.90;;;;;;4995394;28;20479;-63
2021/05/07 01:32:55;;;;;;;4.03;2.70;;;7.80;99.90;;;;;;4995614;28;20129;-63
2021/05/07 01:35:40;;;;;;;5.75;3.28;;;7.80;99.90;;;;;;5012385;28;20022;-63
2021/05/07 01:38:09;;;;;;;5.72;3.30;;;7.80;99.90;;;;;;5012367;28;20036;-63
2021/05/07 01:40:41;;;;;;;6.15;3.08;;;7.80;99.90;;;;;;5012603;28;20114;-63
2021/05/07 01:43:07;;;;;;;4.82;3.22;;;7.80;99.90;;;;;;4994687;28;20080;-63
2021/05/07 01:45:36;;;;;;;6.00;3.35;;;7.80;99.90;;;;;;4995005;28;20034;-63
2021/05/07 01:48:04;;;;;;;6.13;2.88;;;7.80;99.90;;;;;;4994774;28;20036;-63
2021/05/07 01:50:32;;;;;;;4.93;3.40;;;7.80;99.90;;;;;;4995113;28;20061;-63
2021/05/07 01:53:00;;;;;;;4.05;2.45;;;7.80;99.90;;;;;;5012128;28;20033;-63
2021/05/07 01:55:41;;;;;;;6.40;3.15;;;7.80;99.90;;;;;;5012375;28;20026;-63
2021/05/07 01:58:09;;;;;;;3.97;2.80;;;7.80;99.90;;;;;;5012482;28;20041;-63
2021/05/07 02:00:36;;;;;;;4.80;3.10;;;7.80;99.90;;;;;;4994978;28;20482;-64
2021/05/07 02:03:07;;;;;;;5.80;3.10;;;7.80;99.90;;;;;;5012360;28;20042;-64
2021/05/07 02:05:33;;;;;;;;;;;7.70;99.90;;;;;;4995814;28;20065;-63
2021/05/07 02:08:00;;;;;;;4.70;3.00;;;7.70;99.90;;;;;;5012442;28;20007;-64
2021/05/07 02:10:29;;;;;;;7.20;2.70;;;7.70;99.90;;;;;;5012536;28;20042;-64
2021/05/07 02:12:56;;;;;;;5.47;3.38;;;7.70;99.90;;;;;;5012369;28;20030;-63
2021/05/07 02:15:24;;;;;;;7.88;3.40;;;7.70;99.90;;;;;;5012397;28;20038;-63
2021/05/07 02:17:51;;;;;;;4.93;2.88;;;7.70;99.90;;;;;;5011835;28;20030;-64
2021/05/07 02:20:19;;;;;;;6.43;3.35;;;7.70;99.90;;;;;;5012000;28;20041;-64
2021/05/07 02:22:47;;;;;;;6.97;3.80;;;7.70;99.90;;;;;;5011925;28;20567;-63
2021/05/07 02:25:16;;;;;;;5.03;2.88;;;7.60;99.90;;;;;;5012166;28;20439;-63
2021/05/07 02:27:44;;;;;;;6.40;3.33;;;7.70;99.90;;;;;;5012044;28;20084;-63
2021/05/07 02:30:13;;;;;;;5.57;3.20;;;7.70;99.90;;;;;;4994885;28;20042;-63
2021/05/07 02:32:39;;;;;;;6.97;3.75;;;7.70;99.90;;;;;;4981483;28;20180;-63
2021/05/07 02:35:06;;;;;;;4.68;2.97;;;7.80;99.90;;;;;;5016003;28;20064;-63
2021/05/07 02:37:33;;;;;;;7.85;3.58;;;7.80;99.90;;;;;;5015737;28;20121;-63
2021/05/07 02:39:59;;;;;;;7.57;3.35;;;7.90;99.90;;;;;;4998578;28;20387;-63
2021/05/07 02:42:25;;;;;;;5.55;2.92;;;8.00;99.90;;;;;;5015606;28;20040;-63
2021/05/07 02:44:51;;;;;;;6.50;3.65;;;8.10;99.90;;;;;;5015907;28;20036;-63
2021/05/07 02:47:17;;;;;;;5.25;2.88;;;8.00;99.90;;;;;;5015395;28;20109;-63
2021/05/07 02:49:44;;;;;;;5.93;3.38;;;7.90;99.90;;;;;;5015815;28;20076;-63
2021/05/07 02:52:11;;;;;;;6.55;3.72;;;7.90;99.90;;;;;;5015222;28;20422;-63
2021/05/07 02:54:37;;;;;;;8.07;4.05;;;8.00;99.90;;;;;;4998148;28;20057;-63
2021/05/07 02:57:03;;;;;;;7.53;3.65;;;8.00;99.90;;;;;;4997833;28;20060;-64
2021/05/07 02:59:28;;;;;;;6.25;3.90;;;8.00;99.90;;;;;;4998023;28;20057;-63
2021/05/07 03:01:54;;;;;;;7.88;3.78;;;7.90;99.90;;;;;;4997936;28;20030;-63
2021/05/07 03:04:21;;;;;;;6.68;4.07;;;8.00;99.90;;;;;;5015350;28;20034;-63
2021/05/07 03:06:50;;;;;;;5.88;3.83;;;7.90;99.90;;;;;;5015508;28;20533;-62
2021/05/07 03:09:17;;;;;;;6.60;3.67;;;8.00;99.90;;;;;;4997764;28;20034;-63
2021/05/07 03:11:43;;;;;;;7.32;3.50;;;7.90;99.90;;;;;;5015048;28;20072;-62
2021/05/07 03:14:10;;;;;;;6.90;3.63;;;7.90;99.90;;;;;;5013728;28;20125;-63
2021/05/07 03:16:36;;;;;;;6.47;4.22;;;7.90;99.90;;;;;;5015395;28;20045;-62
2021/05/07 03:19:02;;;;;;;6.25;3.83;;;7.90;99.90;;;;;;4997673;28;20037;-63
2021/05/07 03:21:28;;;;;;;7.45;4.22;;;7.80;99.90;;;;;;4997437;28;20037;-63
2021/05/07 03:23:54;;;;;;;7.85;3.67;;;7.90;99.90;;;;;;5014838;28;20683;-63
2021/05/07 03:26:20;;;;;;;7.43;3.95;;;7.90;99.90;;;;;;5013841;28;20021;-63
2021/05/07 03:28:45;;;;;;;6.82;4.18;;;7.90;99.90;;;;;;5014638;28;20145;-63
2021/05/07 03:31:11;;;;;;;9.18;4.32;;;7.90;99.90;;;;;;4997373;28;20087;-63
2021/05/07 03:33:38;;;;;;;5.97;3.90;;;7.80;99.90;;;;;;4997434;28;20464;-64
2021/05/07 03:36:06;;;;;;;6.95;4.55;;;7.80;99.90;;;;;;5014656;28;20057;-64
2021/05/07 03:38:32;;;;;;;7.28;4.38;;;7.70;99.90;;;;;;5014883;28;20069;-64
2021/05/07 03:40:58;;;;;;;8.20;4.20;;;7.70;99.90;;;;;;5014831;28;20486;-63
2021/05/07 03:43:24;;;;;;;7.05;4.15;;;7.70;99.90;;;;;;4995578;28;20491;-63
2021/05/07 03:45:50;;;;;;;7.03;4.20;;;7.70;99.90;;;;;;5014631;28;20061;-63
2021/05/07 03:48:22;;;;;;;8.35;4.65;;;7.70;99.90;;;;;;5014268;28;20037;-64
2021/05/07 03:50:48;;;;;;;;;;;7.70;99.90;;;;;;4997060;28;20456;-64
2021/05/07 03:53:16;;;;;;;8.55;4.93;;;7.70;99.90;;;;;;5029622;28;19951;-64
2021/05/07 03:55:43;;;;;;;9.13;4.60;;;7.70;99.90;;;;;;5011274;28;20447;-63
2021/05/07 03:58:10;;;;;;;8.35;4.95;;;7.60;99.90;;;;;;5014144;28;20037;-64
2021/05/07 04:00:37;;;;;;;6.95;4.55;;;7.70;99.90;;;;;;5029635;28;20514;-63
2021/05/07 04:03:04;;;;;;;6.95;4.38;;;7.70;99.90;;;;;;5011337;28;20046;-65
2021/05/07 04:05:30;;;;;;;7.93;4.55;;;7.60;99.90;;;;;;5014113;28;20030;-64
2021/05/07 04:08:08;;;;;;;7.45;4.60;;;7.60;99.90;;;;;;5014326;28;20033;-64
2021/05/07 04:10:39;;;;;;;9.10;5.18;;;7.70;99.90;;;;;;5013956;28;20026;-65
2021/05/07 04:15:31;;;;;;;8.55;4.22;;;7.80;99.90;;;;;;5013998;28;20037;-63
2021/05/07 04:17:56;;;;;;;7.63;3.92;;;7.70;99.90;;;;;;5014154;28;20360;-64
2021/05/07 04:20:22;;;;;;;8.00;4.22;;;7.80;99.90;;;;;;5013696;28;20419;-64
2021/05/07 04:22:48;;;;;;;6.85;4.35;;;7.70;99.90;;;;;;4993960;28;20054;-64
2021/05/07 04:25:15;;;;;;;6.88;4.25;;;7.70;99.90;;;;;;4993941;28;20026;-64
2021/05/07 04:27:40;;;;;;;7.28;4.22;;;7.70;99.90;;;;;;4993343;28;20070;-64
2021/05/07 04:30:08;;;;;;;7.40;4.07;;;7.70;99.90;;;;;;4994340;28;20066;-64
2021/05/07 04:32:34;;;;;;;7.50;4.68;;;7.70;99.90;;;;;;4993063;28;20475;-64
2021/05/07 04:35:00;;;;;;;8.50;4.80;;;7.70;99.90;;;;;;4994226;28;20041;-64
2021/05/07 04:37:26;;;;;;;7.40;4.65;;;7.70;99.90;;;;;;4994143;28;20030;-64
2021/05/07 04:39:52;;;;;;;9.55;5.20;;;7.60;99.90;;;;;;4994281;28;20038;-64
2021/05/07 04:42:17;;;;;;;7.35;4.80;;;7.60;99.90;;;;;;4993608;28;20052;-64
2021/05/07 04:44:43;;;;;;;8.38;5.45;;;7.70;99.90;;;;;;4993949;28;20395;-64
2021/05/07 04:47:10;;;;;;;7.22;4.70;;;7.60;99.90;;;;;;4992833;28;20351;-64
2021/05/07 04:49:36;;;;;;;7.90;4.95;;;7.70;99.90;;;;;;4993905;28;20424;-63
2021/05/07 04:52:04;;;;;;;8.23;4.90;;;7.70;99.90;;;;;;5007429;28;20041;-63
2021/05/07 04:54:33;;;;;;;7.78;4.80;;;7.70;99.90;;;;;;5012976;28;20034;-64
2021/05/07 04:56:59;;;;;;;7.00;4.18;;;7.70;99.90;;;;;;5028604;28;20152;-64
2021/05/07 04:59:25;;;;;;;7.47;4.90;;;7.70;99.90;;;;;;5028615;28;20022;-63
2021/05/07 05:01:51;;;;;;;6.93;4.40;;;7.70;99.90;;;;;;5013154;28;20379;-65
2021/05/07 05:04:17;;;;;;;8.70;4.80;;;7.80;99.90;;;;;;5011122;28;20030;-65
2021/05/07 05:06:42;;;;;;;9.40;4.72;;;8.00;99.90;;;;;;5013293;28;20466;-65
2021/05/07 05:09:08;;;;;;;7.40;4.63;;;8.20;99.90;;;;;;5013283;28;20026;-65
2021/05/07 05:11:34;;;;;;;6.97;4.10;;;8.30;99.90;;;;;;5012840;28;20041;-65
2021/05/07 05:14:00;;;;;;;6.43;4.07;;;8.20;99.90;;;;;;5013176;28;20030;-65
2021/05/07 05:16:26;;;;;;;9.05;4.30;;;8.50;99.90;;;;;;5012597;28;20368;-66
2021/05/07 05:18:52;;;;;;;8.18;4.22;;;8.50;99.90;;;;;;5012959;28;20109;-65
2021/05/07 05:21:18;;;;;;;8.13;4.93;;;8.70;99.90;;;;;;5012634;28;20474;-65
2021/05/07 05:23:43;;;;;;;8.68;5.13;;;8.80;99.90;;;;;;5021044;28;20046;-64
2021/05/07 05:26:09;;;;;;;9.55;5.18;;;8.80;99.90;;;;;;5012593;28;20037;-64
2021/05/07 05:28:36;;;;;;;12.85;7.28;;;8.60;99.90;;;;;;5012475;28;20128;-64
2021/05/07 05:31:03;;;;;;;8.25;4.45;;;8.50;99.90;;;;;;5005297;28;20060;-65
2021/05/07 05:33:29;;;;;;;9.10;4.70;;;8.50;99.90;;;;;;5014892;28;20057;-64
2021/05/07 05:35:55;;;;;;;12.73;7.90;;;8.50;99.90;;;;;;5004186;28;20026;-64
2021/05/07 05:38:21;;;;;;;8.13;5.22;;;8.40;99.90;;;;;;4975371;28;20387;-65
2021/05/07 05:40:47;;;;;;;9.55;4.65;;;8.30;99.90;;;;;;4992958;28;20517;-64
2021/05/07 05:43:14;;;;;;;10.20;5.60;;;8.30;99.90;;;;;;4992877;28;20035;-65
2021/05/07 05:45:40;;;;;;;14.27;6.20;;;8.20;99.90;;;;;;4975098;28;20468;-64
2021/05/07 05:48:14;;;;;;;12.05;6.40;;;8.10;99.90;;;;;;4993546;28;20027;-63
2021/05/07 05:50:42;;;;;;;12.32;7.45;;;7.90;99.90;;;;;;5013553;28;20494;-64
2021/05/07 05:53:10;;;;;;;16.70;7.78;;;8.00;99.90;;;;;;5014396;28;20045;-64
2021/05/07 05:55:37;;;;;;;12.32;6.50;;;8.00;99.90;;;;;;5031816;28;20056;-64
2021/05/07 05:58:05;;;;;;;13.00;7.55;;;8.10;99.90;;;;;;5030974;28;20037;-63
2021/05/07 06:00:32;;;;;;;12.52;7.85;;;7.90;99.90;;;;;;5028890;28;20489;-63
2021/05/07 06:02:58;;;;;;;11.93;7.45;;;8.10;99.90;;;;;;5032280;28;20076;-63
2021/05/07 06:05:24;;;;;;;12.93;7.05;;;8.20;99.90;;;;;;5012818;28;20033;-63
2021/05/07 06:07:50;;;;;;;13.93;7.93;;;8.30;99.90;;;;;;5034087;28;20033;-64
2021/05/07 06:10:18;;;;;;;13.00;7.72;;;8.20;99.90;;;;;;5035940;28;20025;-63
2021/05/07 06:12:45;;;;;;;12.40;7.20;;;8.30;99.90;;;;;;5035863;28;20104;-64
2021/05/07 06:15:13;;;;;;;21.95;7.30;;;8.50;99.90;;;;;;5035751;28;20030;-64
2021/05/07 06:17:39;;;;;;;16.27;9.52;;;8.60;99.90;;;;;;5036022;28;20037;-63
2021/05/07 06:20:09;;;;;;;20.95;12.68;;;8.60;99.90;;;;;;5035793;28;20479;-64
2021/05/07 06:22:38;;;;;;;11.70;6.85;;;8.70;99.90;;;;;;5026336;28;20102;-63
2021/05/07 06:25:11;;;;;;;9.60;5.75;;;8.80;99.90;;;;;;5034736;28;20029;-64
2021/05/07 06:27:37;;;;;;;12.25;5.50;;;8.80;99.90;;;;;;5035903;28;20120;-63
2021/05/07 06:30:09;;;;;;;9.52;5.30;;;8.70;99.90;;;;;;5035870;28;20060;-63
2021/05/07 06:32:35;;;;;;;9.55;5.80;;;8.70;99.90;;;;;;5034614;28;20045;-63
2021/05/07 06:35:00;;;;;;;12.13;5.70;;;8.70;99.90;;;;;;5035790;28;20029;-64
2021/05/07 06:37:27;;;;;;;8.95;5.38;;;8.60;99.90;;;;;;5035454;28;20075;-64
2021/05/07 06:39:52;;;;;;;11.20;6.10;;;8.50;99.90;;;;;;5035790;28;20025;-64
2021/05/07 06:42:19;;;;;;;9.15;5.43;;;8.50;99.90;;;;;;5035195;28;20040;-64
2021/05/07 06:44:46;;;;;;;9.60;5.75;;;8.40;99.90;;;;;;5035765;28;20057;-64
2021/05/07 06:47:12;;;;;;;9.45;5.60;;;8.40;99.90;;;;;;5035456;28;20080;-64
2021/05/07 06:49:40;;;;;;;13.20;6.28;;;8.40;99.90;;;;;;5035556;28;20083;-63
2021/05/07 06:52:06;;;;;;;11.88;5.75;;;8.50;99.90;;;;;;5035160;28;20044;-63
2021/05/07 06:54:32;;;;;;;8.43;5.30;;;8.50;99.90;;;;;;5017703;28;20033;-64
2021/05/07 06:56:59;;;;;;;9.68;5.47;;;8.60;99.90;;;;;;5029616;28;20033;-64
2021/05/07 06:59:27;;;;;;;10.20;6.40;;;8.70;99.90;;;;;;5053146;28;20029;-63
2021/05/07 07:01:53;;;;;;;11.45;6.47;;;8.80;99.90;;;;;;5055075;28;20116;-64
2021/05/07 07:04:19;;;;;;;10.93;6.55;;;8.80;99.90;;;;;;5055070;28;20032;-65
2021/05/07 07:06:45;;;;;;;9.60;5.78;;;8.90;99.90;;;;;;5055005;28;20033;-65
2021/05/07 07:09:12;;;;;;;11.55;6.85;;;8.90;99.90;;;;;;5054933;28;20025;-65
2021/05/07 07:11:38;;;;;;;11.63;6.13;;;8.80;99.90;;;;;;5054863;28;20029;-64
2021/05/07 07:14:05;;;;;;;15.75;7.30;;;8.70;99.90;;;;;;5055170;28;20040;-64
2021/05/07 07:16:31;;;;;;;10.13;6.28;;;8.70;99.90;;;;;;5054837;28;20033;-64
2021/05/07 07:18:56;;;;;;;9.65;6.10;;;8.80;99.90;;;;;;5053706;28;20036;-64
2021/05/07 07:21:22;;;;;;;12.10;6.90;;;9.00;99.90;;;;;;5046190;28;20042;-65
2021/05/07 07:23:48;;;;;;;13.60;7.25;;;9.00;99.90;;;;;;5033323;28;20041;-65
2021/05/07 07:26:14;;;;;;;12.85;6.65;;;8.90;99.90;;;;;;5034801;28;20104;-64
2021/05/07 07:28:43;;;;;;;12.85;7.47;;;8.80;99.90;;;;;;5034596;28;20045;-64
2021/05/07 07:31:09;;;;;;;12.95;8.00;;;8.70;99.90;;;;;;5034748;28;20030;-65
2021/05/07 07:33:35;;;;;;;13.75;8.35;;;8.80;99.90;;;;;;5034370;28;20040;-65
2021/05/07 07:36:00;;;;;;;15.00;8.55;;;8.90;99.90;;;;;;5034536;28;20077;-65
2021/05/07 07:38:26;;;;;;;14.15;9.32;;;9.10;99.90;;;;;;5032865;28;20038;-65
2021/05/07 07:40:52;;;;;;;13.90;8.65;;;9.20;99.90;;;;;;5034362;28;20042;-64
2021/05/07 07:43:21;;;;;;;15.55;8.40;;;9.20;99.90;;;;;;5034192;28;20033;-63
2021/05/07 07:45:48;;;;;;;15.45;9.00;;;9.10;99.90;;;;;;5034360;28;20033;-65
2021/05/07 07:48:15;;;;;;;14.88;8.75;;;9.20;99.90;;;;;;5032848;28;20454;-65
2021/05/07 07:50:41;;;;;;;12.90;7.97;;;9.30;99.90;;;;;;5033897;28;20041;-65
2021/05/07 07:53:08;;;;;;;14.30;8.00;;;9.40;99.90;;;;;;5032902;28;20433;-65
2021/05/07 07:55:34;;;;;;;12.73;7.75;;;9.50;99.90;;;;;;5034043;28;20064;-65
2021/05/07 07:58:00;;;;;;;14.45;8.48;;;9.60;99.90;;;;;;5034359;28;20033;-64
2021/05/07 08:00:26;;;;;;;13.00;7.38;;;9.40;99.90;;;;;;5032864;28;20026;-65
2021/05/07 08:02:53;;;;;;;13.45;7.45;;;9.50;99.90;;;;;;5034019;28;20113;-65
2021/05/07 08:05:18;;;;;;;14.80;7.07;;;9.50;99.90;;;;;;5032988;28;20031;-65
2021/05/07 08:07:48;;;;;;;12.93;7.22;;;9.50;99.90;;;;;;5032625;28;20033;-65
2021/05/07 08:10:16;;;;;;;10.23;6.32;;;9.50;99.90;;;;;;5015992;28;20033;-65
2021/05/07 08:12:43;;;;;;;11.30;6.10;;;9.50;99.90;;;;;;5033511;28;20571;-65
2021/05/07 08:15:10;;;;;;;10.93;6.13;;;9.50;99.90;;;;;;5050321;28;20028;-65
2021/05/07 08:17:36;;;;;;;9.13;5.35;;;9.60;99.90;;;;;;5053270;28;20558;-65
2021/05/07 08:20:05;;;;;;;10.80;6.13;;;9.70;99.80;;;;;;5053560;28;20052;-65
2021/05/07 08:22:31;;;;;;;10.98;6.63;;;9.80;99.50;;;;;;5017135;28;20052;-65
2021/05/07 08:24:57;;;;;;;12.43;5.68;;;9.80;99.90;;;;;;5032493;28;20025;-65
2021/05/07 08:27:23;;;;;;;7.20;4.70;;;9.90;98.90;;;;;;5033763;28;20522;-64
2021/05/07 08:29:50;;;;;;;9.93;5.72;;;9.90;98.60;;;;;;5033042;28;20033;-64
2021/05/07 08:32:16;;;;;;;9.95;5.05;;;10.00;98.90;;;;;;5031682;28;20126;-64
2021/05/07 08:34:44;;;;;;;10.20;5.75;;;10.00;97.60;;;;;;5033269;28;20056;-65
2021/05/07 08:37:13;;;;;;;10.70;5.93;;;10.00;97.70;;;;;;5033331;28;20045;-64
2021/05/07 08:39:40;;;;;;;9.15;5.05;;;10.10;97.60;;;;;;5033482;28;20057;-64
2021/05/07 08:42:06;;;;;;;7.68;4.85;;;10.40;96.60;;;;;;5033426;28;20121;-64
2021/05/07 08:44:33;;;;;;;9.55;5.35;;;10.50;97.50;;;;;;5033028;28;20039;-65
2021/05/07 08:47:00;;;;;;;9.20;4.95;;;10.60;97.10;;;;;;5033070;28;20364;-65
2021/05/07 08:49:28;;;;;;;9.25;5.03;;;10.60;97.00;;;;;;5024594;28;20099;-64
2021/05/07 08:51:53;;;;;;;8.52;4.97;;;10.70;96.80;;;;;;5031585;28;20371;-64
2021/05/07 08:54:28;;;;;;;8.80;4.60;;;10.50;94.80;;;;;;5015555;28;20035;-64
2021/05/07 08:56:56;;;;;;;12.05;5.13;;;10.50;94.40;;;;;;5033242;28;20037;-64
2021/05/07 08:59:22;;;;;;;7.68;4.53;;;10.50;95.60;;;;;;5025075;28;20083;-65
2021/05/07 09:01:50;;;;;;;8.80;4.35;;;10.60;95.70;;;;;;5032645;28;20045;-65
2021/05/07 09:04:21;;;;;;;8.48;5.38;;;10.80;95.30;;;;;;5033077;28;20510;-64
2021/05/07 09:06:51;;;;;;;10.05;4.68;;;11.00;92.70;;;;;;5032290;28;20073;-65
2021/05/07 09:09:26;;;;;;;7.68;4.35;;;11.10;90.60;;;;;;5032685;28;20519;-65
2021/05/07 09:11:55;;;;;;;6.68;4.35;;;11.20;91.00;;;;;;5032882;28;20029;-65
2021/05/07 09:14:22;;;;;;;8.40;4.68;;;11.10;92.40;;;;;;5031256;28;20045;-64
2021/05/07 09:17:01;;;;;;;13.20;5.43;;;11.10;91.70;;;;;;5032553;28;20033;-65
2021/05/07 09:19:30;;;;;;;8.38;4.65;;;10.90;92.60;;;;;;5025470;28;20061;-65
2021/05/07 09:21:57;;;;;;;11.40;5.20;;;11.10;93.10;;;;;;5032187;28;20088;-65
2021/05/07 09:24:32;;;;;;;9.75;5.38;;;11.00;92.60;;;;;;5032622;28;20025;-65
2021/05/07 09:26:58;;;;;;;10.57;5.47;;;10.90;93.60;;;;;;5014577;28;20026;-65
2021/05/07 09:29:30;;;;;;;12.32;5.55;;;11.10;92.80;;;;;;5032764;28;20033;-65
2021/05/07 09:31:57;;;;;;;7.30;4.13;;;11.30;92.40;;;;;;5032676;28;20025;-65
2021/05/07 09:34:23;;;;;;;8.23;4.88;;;11.30;94.40;;;;;;5030969;28;20106;-64
2021/05/07 09:36:51;;;;;;;8.02;4.15;;;11.10;92.60;;;;;;5032036;28;20030;-65
2021/05/07 09:39:22;;;;;;;7.65;4.20;;;11.20;90.20;;;;;;5032244;28;20030;-64
2021/05/07 09:41:53;;;;;;;6.97;3.65;;;11.20;92.20;;;;;;5029972;28;20029;-64
2021/05/07 09:44:22;;;;;;;5.72;3.42;;;11.30;91.50;;;;;;5031357;28;20026;-64
2021/05/07 09:46:51;;;;;;;5.75;3.47;;;11.30;84.70;;;;;;5032069;28;20029;-64
2021/05/07 09:49:31;;;;;;;5.28;3.30;;;11.50;83.90;;;;;;5031590;28;20043;-65
2021/05/07 09:51:58;;;;;;;6.80;3.33;;;11.50;84.70;;;;;;5030552;28;20482;-64
2021/05/07 09:54:26;;;;;;;7.55;3.20;;;11.70;83.60;;;;;;5032301;28;20025;-64
2021/05/07 09:56:54;;;;;;;6.78;3.20;;;11.90;86.70;;;;;;5032186;28;20021;-64
2021/05/07 09:59:21;;;;;;;6.15;3.50;;;11.80;85.80;;;;;;5031695;28;20394;-65
2021/05/07 10:01:49;;;;;;;6.20;3.17;;;11.70;85.40;;;;;;5032060;28;20068;-64
2021/05/07 10:04:16;;;;;;;6.55;3.33;;;11.40;90.10;;;;;;5031190;28;20036;-65
2021/05/07 10:06:42;;;;;;;5.68;3.22;;;11.20;87.70;;;;;;5031698;28;20029;-65
2021/05/07 10:09:11;;;;;;;6.32;3.22;;;11.30;87.90;;;;;;5032015;28;20048;-65
2021/05/07 10:11:45;;;;;;;7.45;3.58;;;11.40;89.00;;;;;;5030941;28;20029;-65
2021/05/07 10:14:13;;;;;;;5.97;3.53;;;11.30;85.40;;;;;;5045985;28;20025;-64
2021/05/07 10:16:39;;;;;;;5.63;3.25;;;11.00;89.00;;;;;;5031363;28;20567;-62
2021/05/07 10:19:11;;;;;;;6.40;3.42;;;10.70;91.10;;;;;;5022215;28;20053;-61
2021/05/07 10:21:46;;;;;;;9.60;4.03;;;10.60;90.60;;;;;;5031556;28;20363;-64
2021/05/07 10:24:17;;;;;;;8.80;4.15;;;10.50;94.90;;;;;;5031809;28;20108;-64
2021/05/07 10:26:51;;;;;;;5.18;3.05;;;9.70;99.90;;;;;;5031905;28;20032;-63
2021/05/07 10:29:26;;;;;;;8.05;4.25;;;8.90;99.90;;;;;;5030807;28;20029;-64
2021/05/07 10:31:58;;;;;;;5.72;3.47;;;8.90;99.90;;;;;;5031697;28;20425;-65
2021/05/07 10:34:27;;;;;;;6.07;3.45;;;9.30;99.90;;;;;;5024064;28;20041;-66
2021/05/07 10:36:55;;;;;;;5.80;3.35;;;9.60;99.90;;;;;;5030543;28;20390;-65
2021/05/07 10:39:52;;;;;;;6.82;3.25;;;10.10;99.90;;;;;;5030686;28;20052;-65
2021/05/07 10:42:18;;;;;;;6.43;3.42;;;10.70;99.30;;;;;;5031841;28;20033;-64
2021/05/07 10:44:44;;;;;;;4.25;2.70;;;11.30;97.50;;;;;;5031374;28;20102;-64
2021/05/07 10:47:10;;;;;;;7.10;2.33;;;11.60;92.70;;;;;;5031913;28;20073;-64
2021/05/07 10:49:42;;;;;;;4.28;2.22;;;11.80;87.10;;;;;;5031578;28;20041;-65
2021/05/07 10:52:11;;;;;;;3.70;1.83;;;12.00;88.90;;;;;;5030273;28;20034;-64
2021/05/07 10:54:53;;;;;;;2.88;1.73;;;11.80;91.00;;;;;;5034013;28;20037;-66
2021/05/07 10:57:25;;;;;;;3.78;2.05;;;11.50;90.00;;;;;;5031811;28;20044;-65
2021/05/07 11:00:10;;;;;;;8.20;2.20;;;11.30;91.10;;;;;;5035387;28;20037;-65
2021/05/07 11:02:46;;;;;;;4.40;2.10;;;11.00;93.60;;;;;;5034915;28;20116;-65
2021/05/07 11:05:13;;;;;;;3.75;2.00;;;10.70;98.00;;;;;;5035036;28;20030;-67
2021/05/07 11:07:53;;;;;;;3.83;2.38;;;10.70;98.00;;;;;;5017452;28;20120;-65
2021/05/07 11:10:27;;;;;;;4.05;2.03;;;10.90;99.70;;;;;;5034844;28;20030;-63
2021/05/07 11:12:53;;;;;;;3.47;2.08;;;11.30;97.60;;;;;;5034730;28;20690;-64
2021/05/07 11:15:19;;;;;;;6.38;3.08;;;12.00;96.20;;;;;;5035058;28;20033;-65
2021/05/07 11:17:45;;;;;;;4.88;2.67;;;12.20;93.20;;;;;;5034827;28;20033;-64
2021/05/07 11:20:12;;;;;;;4.18;2.30;;;12.20;93.30;;;;;;5034944;28;20030;-64
2021/05/07 11:22:40;;;;;;;6.50;2.90;;;12.10;95.00;;;;;;5034093;28;20049;-65
2021/05/07 11:25:10;;;;;;;4.63;2.47;;;11.70;95.50;;;;;;5017067;28;20025;-65
2021/05/07 11:27:37;;;;;;;5.63;2.03;;;11.30;96.20;;;;;;5034767;28;20029;-65
2021/05/07 11:30:09;;;;;;;3.72;2.15;;;11.60;97.30;;;;;;5034676;28;20033;-67
2021/05/07 11:32:35;;;;;;;4.15;2.38;;;11.80;97.40;;;;;;5034473;28;20033;-65
2021/05/07 11:35:08;;;;;;;3.50;2.03;;;11.70;95.90;;;;;;5034288;28;20443;-65
2021/05/07 11:37:38;;;;;;;5.07;2.25;;;11.40;96.30;;;;;;5034306;28;20486;-65
2021/05/07 11:40:13;;;;;;;5.03;2.20;;;11.50;97.10;;;;;;5034419;28;20113;-65
2021/05/07 11:42:42;;;;;;;4.05;2.05;;;11.40;96.10;;;;;;5032542;28;20029;-64
2021/05/07 11:45:20;;;;;;;4.93;2.15;;;11.50;96.90;;;;;;5015146;28;20112;-64
2021/05/07 11:47:46;;;;;;;3.65;1.98;;;11.40;96.90;;;;;;5034242;28;20083;-65
2021/05/07 11:50:19;;;;;;;3.78;1.92;;;10.90;96.40;;;;;;5032349;28;20102;-64
2021/05/07 11:52:48;;;;;;;3.95;1.60;;;10.90;99.70;;;;;;5034018;28;20069;-65
2021/05/07 11:55:20;;;;;;;4.95;2.00;;;10.90;97.20;;;;;;5034111;28;20124;-64
2021/05/07 11:58:06;;;;;;;4.55;1.98;;;11.10;99.10;;;;;;5034000;28;20112;-65
2021/05/07 12:00:35;;;;;;;3.17;1.92;;;11.50;99.60;;;;;;5033880;28;20437;-65
2021/05/07 12:03:14;;;;;;;3.20;2.00;;;11.70;96.90;;;;;;5034012;28;20421;-64
2021/05/07 12:05:44;;;;;;;3.80;2.00;;;11.60;95.20;;;;;;5031823;28;20068;-65
2021/05/07 12:08:10;;;;;;;4.15;2.35;;;11.60;96.10;;;;;;5034030;28;20032;-64
2021/05/07 12:10:41;;;;;;;6.20;2.00;;;11.50;96.60;;;;;;5033197;28;20018;-64
2021/05/07 12:13:09;;;;;;;3.95;2.13;;;11.50;97.80;;;;;;5033761;28;20061;-64
2021/05/07 12:15:46;;;;;;;4.30;2.72;;;11.90;97.60;;;;;;5033557;28;20504;-64
2021/05/07 12:18:23;;;;;;;4.25;2.40;;;12.10;97.10;;;;;;5033759;28;20045;-64
2021/05/07 12:20:55;;;;;;;5.30;2.42;;;11.80;97.50;;;;;;5033727;28;20033;-46
2021/05/07 12:23:21;;;;;;;6.07;2.65;;;12.20;98.50;;;;;;5033256;28;20088;-64
2021/05/07 12:25:48;;;;;;;3.78;2.10;;;12.80;94.60;;;;;;5033389;28;20037;-65
2021/05/07 12:28:20;;;;;;;3.33;1.95;;;13.30;91.00;;;;;;5033790;28;20068;-65
2021/05/07 12:30:48;;;;;;;3.33;1.90;;;13.60;89.00;;;;;;5033636;28;20025;-65
2021/05/07 12:33:19;;;;;;;3.67;2.08;;;13.20;89.70;;;;;;5033630;28;20485;-64
2021/05/07 12:35:55;;;;;;;4.07;2.20;;;12.80;92.40;;;;;;5033363;28;20022;-65
2021/05/07 12:38:36;;;;;;;3.97;2.40;;;12.40;99.70;;;;;;5033293;28;20124;-65
2021/05/07 12:41:10;;;;;;;3.50;2.15;;;10.90;99.90;;;;;;5033087;28;20033;-64
2021/05/07 12:43:45;;;;;;;4.18;2.03;;;10.40;99.90;;;;;;5033271;28;20072;-63
2021/05/07 12:46:13;;;;;;;4.03;2.40;;;10.40;99.90;;;;;;5032024;28;20041;-64
2021/05/07 12:48:39;;;;;;;5.32;2.75;;;10.60;99.90;;;;;;5033118;28;20034;-64
2021/05/07 12:51:08;;;;;;;4.45;2.10;;;11.20;99.90;;;;;;5031654;28;20131;-64
2021/05/07 12:53:37;;;;;;;5.90;2.45;;;11.90;99.90;;;;;;5015051;28;20025;-64
2021/05/07 12:56:03;;;;;;;4.53;2.33;;;12.70;99.30;;;;;;5032752;28;20032;-63
2021/05/07 12:58:29;;;;;;;3.53;2.08;;;13.10;96.00;;;;;;5031607;28;20118;-63
2021/05/07 13:00:55;;;;;;;2.75;1.52;;;13.50;94.60;;;;;;5032791;28;20482;-64